Preview of NWS' New Version of Forecast
This preview is not operational and should not be used for support decisions.

Terminal Aerodrome Forecast (TAF)

Issued by National Weather Service (NWS)

                            
000
FTUS46 KMTR 171736
TAFSTS
TAF
KSTS 171736Z 1718/1818 VRB04KT P6SM SKC
     FM172200 29008KT P6SM SKC
     FM180600 VRB03KT P6SM SKC
     FM181000 VRB03KT P6SM FEW004=